sensor_id;sensor_type;location;lat;lon;timestamp;P1;durP1;ratioP1;P2;durP2;ratioP2
21183;SDS011;18176;49.502;11.754;2022-07-06T00:00:30;6.10;;;2.00;;
21183;SDS011;18176;49.502;11.754;2022-07-06T00:04:27;7.65;;;1.90;;
21183;SDS011;18176;49.502;11.754;2022-07-06T00:08:24;2.13;;;1.70;;
21183;SDS011;18176;49.502;11.754;2022-07-06T00:12:21;4.13;;;1.65;;
21183;SDS011;18176;49.502;11.754;2022-07-06T00:16:18;2.78;;;1.85;;
21183;SDS011;18176;49.502;11.754;2022-07-06T00:20:17;2.25;;;1.80;;
21183;SDS011;18176;49.502;11.754;2022-07-06T00:24:14;2.88;;;1.90;;
21183;SDS011;18176;49.502;11.754;2022-07-06T00:28:14;6.03;;;1.90;;
21183;SDS011;18176;49.502;11.754;2022-07-06T00:32:11;2.45;;;1.80;;
21183;SDS011;18176;49.502;11.754;2022-07-06T00:36:09;5.60;;;1.95;;
21183;SDS011;18176;49.502;11.754;2022-07-06T00:40:06;4.70;;;1.80;;
21183;SDS011;18176;49.502;11.754;2022-07-06T00:44:06;3.00;;;1.63;;
21183;SDS011;18176;49.502;11.754;2022-07-06T00:48:05;4.35;;;1.80;;
21183;SDS011;18176;49.502;11.754;2022-07-06T00:52:02;2.80;;;1.80;;
21183;SDS011;18176;49.502;11.754;2022-07-06T00:56:00;2.90;;;1.80;;
21183;SDS011;18176;49.502;11.754;2022-07-06T00:59:58;2.23;;;1.80;;
21183;SDS011;18176;49.502;11.754;2022-07-06T01:03:55;3.33;;;2.10;;
21183;SDS011;18176;49.502;11.754;2022-07-06T01:07:53;6.97;;;2.20;;
21183;SDS011;18176;49.502;11.754;2022-07-06T01:11:53;3.77;;;1.90;;
21183;SDS011;18176;49.502;11.754;2022-07-06T01:15:51;4.57;;;2.00;;
21183;SDS011;18176;49.502;11.754;2022-07-06T01:19:49;5.27;;;2.10;;
21183;SDS011;18176;49.502;11.754;2022-07-06T01:23:46;2.67;;;1.95;;
21183;SDS011;18176;49.502;11.754;2022-07-06T01:27:44;5.17;;;2.00;;
21183;SDS011;18176;49.502;11.754;2022-07-06T01:31:47;3.07;;;2.00;;
21183;SDS011;18176;49.502;11.754;2022-07-06T01:35:47;4.27;;;2.20;;
21183;SDS011;18176;49.502;11.754;2022-07-06T01:39:46;4.93;;;2.20;;
21183;SDS011;18176;49.502;11.754;2022-07-06T01:43:43;2.40;;;2.20;;
21183;SDS011;18176;49.502;11.754;2022-07-06T01:47:40;3.67;;;2.30;;
21183;SDS011;18176;49.502;11.754;2022-07-06T01:51:37;2.97;;;2.20;;
21183;SDS011;18176;49.502;11.754;2022-07-06T01:55:35;4.60;;;2.43;;
21183;SDS011;18176;49.502;11.754;2022-07-06T01:59:32;6.13;;;2.40;;
21183;SDS011;18176;49.502;11.754;2022-07-06T02:03:29;8.13;;;2.43;;
21183;SDS011;18176;49.502;11.754;2022-07-06T02:07:28;6.20;;;2.60;;
21183;SDS011;18176;49.502;11.754;2022-07-06T02:11:26;3.00;;;2.40;;
21183;SDS011;18176;49.502;11.754;2022-07-06T02:15:24;2.30;;;2.10;;
21183;SDS011;18176;49.502;11.754;2022-07-06T02:19:21;3.50;;;2.30;;
21183;SDS011;18176;49.502;11.754;2022-07-06T02:23:18;4.23;;;2.50;;
21183;SDS011;18176;49.502;11.754;2022-07-06T02:27:17;7.10;;;2.40;;
21183;SDS011;18176;49.502;11.754;2022-07-06T02:31:14;4.53;;;2.30;;
21183;SDS011;18176;49.502;11.754;2022-07-06T02:35:14;3.30;;;2.50;;
21183;SDS011;18176;49.502;11.754;2022-07-06T02:39:12;3.83;;;2.50;;
21183;SDS011;18176;49.502;11.754;2022-07-06T02:43:09;4.77;;;2.60;;
21183;SDS011;18176;49.502;11.754;2022-07-06T02:47:08;3.13;;;2.40;;
21183;SDS011;18176;49.502;11.754;2022-07-06T02:51:05;4.40;;;2.40;;
21183;SDS011;18176;49.502;11.754;2022-07-06T02:55:04;2.63;;;2.30;;
21183;SDS011;18176;49.502;11.754;2022-07-06T02:59:02;2.50;;;2.30;;
21183;SDS011;18176;49.502;11.754;2022-07-06T03:02:59;5.83;;;2.50;;
21183;SDS011;18176;49.502;11.754;2022-07-06T03:06:57;5.47;;;2.70;;
21183;SDS011;18176;49.502;11.754;2022-07-06T03:10:55;5.77;;;2.37;;
21183;SDS011;18176;49.502;11.754;2022-07-06T03:14:52;4.17;;;2.50;;
21183;SDS011;18176;49.502;11.754;2022-07-06T03:18:49;5.23;;;2.87;;
21183;SDS011;18176;49.502;11.754;2022-07-06T03:22:47;7.20;;;2.63;;
21183;SDS011;18176;49.502;11.754;2022-07-06T03:26:44;4.67;;;2.73;;
21183;SDS011;18176;49.502;11.754;2022-07-06T04:55:44;5.10;;;2.60;;
21183;SDS011;18176;49.502;11.754;2022-07-06T04:59:49;4.60;;;2.47;;
21183;SDS011;18176;49.502;11.754;2022-07-06T05:03:46;4.83;;;2.57;;
21183;SDS011;18176;49.502;11.754;2022-07-06T05:07:48;6.28;;;2.40;;
21183;SDS011;18176;49.502;11.754;2022-07-06T05:11:56;12.10;;;3.30;;
21183;SDS011;18176;49.502;11.754;2022-07-06T05:27:17;5.28;;;2.70;;
21183;SDS011;18176;49.502;11.754;2022-07-06T05:31:16;4.47;;;2.40;;
21183;SDS011;18176;49.502;11.754;2022-07-06T05:35:24;4.78;;;2.40;;
21183;SDS011;18176;49.502;11.754;2022-07-06T05:39:44;5.65;;;2.30;;
21183;SDS011;18176;49.502;11.754;2022-07-06T05:43:43;5.30;;;2.10;;
21183;SDS011;18176;49.502;11.754;2022-07-06T05:48:22;3.85;;;2.30;;
21183;SDS011;18176;49.502;11.754;2022-07-06T05:53:01;6.72;;;2.40;;
21183;SDS011;18176;49.502;11.754;2022-07-06T05:57:21;3.42;;;2.08;;
21183;SDS011;18176;49.502;11.754;2022-07-06T06:01:29;2.95;;;2.10;;
21183;SDS011;18176;49.502;11.754;2022-07-06T06:05:37;4.80;;;2.35;;
21183;SDS011;18176;49.502;11.754;2022-07-06T06:09:36;3.70;;;2.10;;
21183;SDS011;18176;49.502;11.754;2022-07-06T06:13:34;8.68;;;2.03;;
21183;SDS011;18176;49.502;11.754;2022-07-06T06:17:31;4.32;;;1.83;;
21183;SDS011;18176;49.502;11.754;2022-07-06T06:21:29;6.00;;;2.00;;
21183;SDS011;18176;49.502;11.754;2022-07-06T06:25:30;3.75;;;1.65;;
21183;SDS011;18176;49.502;11.754;2022-07-06T06:29:33;3.65;;;1.60;;
21183;SDS011;18176;49.502;11.754;2022-07-06T06:33:30;6.90;;;1.58;;
21183;SDS011;18176;49.502;11.754;2022-07-06T06:37:27;7.72;;;1.73;;
21183;SDS011;18176;49.502;11.754;2022-07-06T06:41:24;2.95;;;1.70;;
21183;SDS011;18176;49.502;11.754;2022-07-06T06:45:21;2.13;;;1.50;;
21183;SDS011;18176;49.502;11.754;2022-07-06T06:49:18;3.58;;;1.80;;
21183;SDS011;18176;49.502;11.754;2022-07-06T06:53:15;3.08;;;1.50;;
21183;SDS011;18176;49.502;11.754;2022-07-06T06:57:12;4.18;;;1.63;;
21183;SDS011;18176;49.502;11.754;2022-07-06T07:01:09;2.15;;;1.67;;
21183;SDS011;18176;49.502;11.754;2022-07-06T07:05:06;3.10;;;1.55;;
21183;SDS011;18176;49.502;11.754;2022-07-06T07:09:04;10.57;;;1.70;;
21183;SDS011;18176;49.502;11.754;2022-07-06T07:13:01;1.70;;;1.60;;
21183;SDS011;18176;49.502;11.754;2022-07-06T07:16:58;5.50;;;2.00;;
21183;SDS011;18176;49.502;11.754;2022-07-06T07:20:55;2.45;;;1.50;;
21183;SDS011;18176;49.502;11.754;2022-07-06T07:24:52;3.33;;;1.50;;
21183;SDS011;18176;49.502;11.754;2022-07-06T07:28:49;3.63;;;1.50;;
21183;SDS011;18176;49.502;11.754;2022-07-06T07:32:46;2.00;;;1.60;;
21183;SDS011;18176;49.502;11.754;2022-07-06T07:36:43;4.20;;;1.40;;
21183;SDS011;18176;49.502;11.754;2022-07-06T07:40:40;1.83;;;1.30;;
21183;SDS011;18176;49.502;11.754;2022-07-06T07:44:37;2.88;;;1.45;;
21183;SDS011;18176;49.502;11.754;2022-07-06T07:48:35;3.97;;;1.30;;
21183;SDS011;18176;49.502;11.754;2022-07-06T07:52:32;2.78;;;1.50;;
21183;SDS011;18176;49.502;11.754;2022-07-06T07:56:29;5.03;;;1.40;;
21183;SDS011;18176;49.502;11.754;2022-07-06T08:00:26;2.65;;;1.50;;
21183;SDS011;18176;49.502;11.754;2022-07-06T11:01:20;3.85;;;1.55;;
21183;SDS011;18176;49.502;11.754;2022-07-06T11:05:57;2.05;;;1.67;;
21183;SDS011;18176;49.502;11.754;2022-07-06T11:10:01;2.13;;;1.70;;
21183;SDS011;18176;49.502;11.754;2022-07-06T11:14:00;2.75;;;1.80;;
21183;SDS011;18176;49.502;11.754;2022-07-06T11:18:11;7.75;;;1.70;;
21183;SDS011;18176;49.502;11.754;2022-07-06T11:22:09;4.53;;;1.70;;
21183;SDS011;18176;49.502;11.754;2022-07-06T11:26:06;4.30;;;1.70;;
21183;SDS011;18176;49.502;11.754;2022-07-06T11:30:06;6.25;;;2.00;;
21183;SDS011;18176;49.502;11.754;2022-07-06T11:34:09;2.33;;;1.80;;
21183;SDS011;18176;49.502;11.754;2022-07-06T11:38:26;4.72;;;1.77;;
21183;SDS011;18176;49.502;11.754;2022-07-06T11:42:23;2.83;;;1.60;;
21183;SDS011;18176;49.502;11.754;2022-07-06T11:46:24;6.15;;;1.90;;
21183;SDS011;18176;49.502;11.754;2022-07-06T11:50:30;3.95;;;1.90;;
21183;SDS011;18176;49.502;11.754;2022-07-06T11:54:27;20.00;;;1.98;;
21183;SDS011;18176;49.502;11.754;2022-07-06T11:58:25;9.63;;;1.60;;
21183;SDS011;18176;49.502;11.754;2022-07-06T12:02:22;3.42;;;1.77;;
21183;SDS011;18176;49.502;11.754;2022-07-06T12:06:20;5.45;;;2.30;;
21183;SDS011;18176;49.502;11.754;2022-07-06T12:10:31;2.80;;;1.80;;
21183;SDS011;18176;49.502;11.754;2022-07-06T12:14:35;4.03;;;2.05;;
21183;SDS011;18176;49.502;11.754;2022-07-06T12:18:37;1.88;;;1.60;;
21183;SDS011;18176;49.502;11.754;2022-07-06T12:22:35;2.30;;;1.60;;
21183;SDS011;18176;49.502;11.754;2022-07-06T12:26:38;3.90;;;1.83;;
21183;SDS011;18176;49.502;11.754;2022-07-06T12:30:45;2.17;;;1.67;;
21183;SDS011;18176;49.502;11.754;2022-07-06T12:34:42;5.05;;;1.92;;
21183;SDS011;18176;49.502;11.754;2022-07-06T12:38:45;2.63;;;1.88;;
21183;SDS011;18176;49.502;11.754;2022-07-06T12:42:47;3.47;;;2.15;;
21183;SDS011;18176;49.502;11.754;2022-07-06T12:46:45;3.22;;;1.83;;
21183;SDS011;18176;49.502;11.754;2022-07-06T12:50:42;5.85;;;1.73;;
21183;SDS011;18176;49.502;11.754;2022-07-06T12:58:58;3.40;;;1.70;;
21183;SDS011;18176;49.502;11.754;2022-07-06T13:02:56;3.42;;;1.50;;
21183;SDS011;18176;49.502;11.754;2022-07-06T13:07:04;1.90;;;1.80;;
21183;SDS011;18176;49.502;11.754;2022-07-06T13:11:03;3.08;;;1.92;;
21183;SDS011;18176;49.502;11.754;2022-07-06T13:15:00;2.30;;;2.10;;
21183;SDS011;18176;49.502;11.754;2022-07-06T13:18:58;6.30;;;1.98;;
21183;SDS011;18176;49.502;11.754;2022-07-06T13:22:55;1.77;;;1.58;;
21183;SDS011;18176;49.502;11.754;2022-07-06T13:26:52;2.53;;;1.88;;
21183;SDS011;18176;49.502;11.754;2022-07-06T13:30:49;5.47;;;2.00;;
21183;SDS011;18176;49.502;11.754;2022-07-06T13:34:47;5.50;;;2.03;;
21183;SDS011;18176;49.502;11.754;2022-07-06T13:38:45;2.92;;;1.75;;
21183;SDS011;18176;49.502;11.754;2022-07-06T13:42:42;3.63;;;2.00;;
21183;SDS011;18176;49.502;11.754;2022-07-06T13:46:39;3.45;;;2.03;;
21183;SDS011;18176;49.502;11.754;2022-07-06T13:50:37;2.92;;;1.65;;
21183;SDS011;18176;49.502;11.754;2022-07-06T13:54:34;5.93;;;1.60;;
21183;SDS011;18176;49.502;11.754;2022-07-06T13:58:31;4.47;;;2.17;;
21183;SDS011;18176;49.502;11.754;2022-07-06T14:02:28;4.53;;;1.88;;
21183;SDS011;18176;49.502;11.754;2022-07-06T14:06:25;3.10;;;1.73;;
21183;SDS011;18176;49.502;11.754;2022-07-06T14:10:23;4.38;;;1.85;;
21183;SDS011;18176;49.502;11.754;2022-07-06T14:14:20;6.72;;;1.60;;
21183;SDS011;18176;49.502;11.754;2022-07-06T14:18:17;3.58;;;1.85;;
21183;SDS011;18176;49.502;11.754;2022-07-06T14:22:15;2.35;;;1.73;;
21183;SDS011;18176;49.502;11.754;2022-07-06T14:26:12;3.55;;;1.70;;
21183;SDS011;18176;49.502;11.754;2022-07-06T14:30:09;2.90;;;1.80;;
21183;SDS011;18176;49.502;11.754;2022-07-06T14:34:07;5.18;;;1.70;;
21183;SDS011;18176;49.502;11.754;2022-07-06T14:38:04;1.88;;;1.65;;
21183;SDS011;18176;49.502;11.754;2022-07-06T14:42:03;3.42;;;1.60;;
21183;SDS011;18176;49.502;11.754;2022-07-06T14:46:01;4.25;;;1.60;;
21183;SDS011;18176;49.502;11.754;2022-07-06T14:49:58;3.15;;;1.40;;
21183;SDS011;18176;49.502;11.754;2022-07-06T14:53:55;3.88;;;1.50;;
21183;SDS011;18176;49.502;11.754;2022-07-06T14:57:52;6.65;;;1.48;;
21183;SDS011;18176;49.502;11.754;2022-07-06T15:01:51;4.93;;;1.50;;
21183;SDS011;18176;49.502;11.754;2022-07-06T15:05:49;4.10;;;1.50;;
21183;SDS011;18176;49.502;11.754;2022-07-06T15:09:49;4.38;;;1.52;;
21183;SDS011;18176;49.502;11.754;2022-07-06T15:13:46;2.22;;;1.60;;
21183;SDS011;18176;49.502;11.754;2022-07-06T15:17:49;2.65;;;1.42;;
21183;SDS011;18176;49.502;11.754;2022-07-06T15:21:46;2.55;;;1.35;;
21183;SDS011;18176;49.502;11.754;2022-07-06T15:25:43;4.15;;;1.55;;
21183;SDS011;18176;49.502;11.754;2022-07-06T15:29:50;4.78;;;1.60;;
21183;SDS011;18176;49.502;11.754;2022-07-06T15:33:47;2.83;;;1.70;;
21183;SDS011;18176;49.502;11.754;2022-07-06T15:37:45;4.97;;;1.80;;
21183;SDS011;18176;49.502;11.754;2022-07-06T15:41:49;2.58;;;1.80;;
21183;SDS011;18176;49.502;11.754;2022-07-06T15:45:46;3.67;;;1.70;;
21183;SDS011;18176;49.502;11.754;2022-07-06T15:49:44;3.60;;;1.50;;
21183;SDS011;18176;49.502;11.754;2022-07-06T15:53:48;2.45;;;1.63;;
21183;SDS011;18176;49.502;11.754;2022-07-06T15:57:45;3.30;;;1.75;;
21183;SDS011;18176;49.502;11.754;2022-07-06T16:01:42;4.32;;;1.90;;
21183;SDS011;18176;49.502;11.754;2022-07-06T16:05:44;4.43;;;1.70;;
21183;SDS011;18176;49.502;11.754;2022-07-06T16:10:03;2.90;;;1.70;;
21183;SDS011;18176;49.502;11.754;2022-07-06T16:14:01;2.60;;;1.48;;
21183;SDS011;18176;49.502;11.754;2022-07-06T16:17:58;4.97;;;1.40;;
21183;SDS011;18176;49.502;11.754;2022-07-06T16:26:17;4.55;;;1.73;;
21183;SDS011;18176;49.502;11.754;2022-07-06T16:30:15;4.55;;;1.73;;
21183;SDS011;18176;49.502;11.754;2022-07-06T16:34:17;3.78;;;1.48;;
21183;SDS011;18176;49.502;11.754;2022-07-06T16:38:14;2.05;;;1.58;;
21183;SDS011;18176;49.502;11.754;2022-07-06T16:42:11;3.53;;;1.80;;
21183;SDS011;18176;49.502;11.754;2022-07-06T16:46:09;2.38;;;1.50;;
21183;SDS011;18176;49.502;11.754;2022-07-06T16:50:06;2.10;;;1.60;;
21183;SDS011;18176;49.502;11.754;2022-07-06T16:54:04;4.85;;;1.90;;
21183;SDS011;18176;49.502;11.754;2022-07-06T16:58:01;3.80;;;1.90;;
21183;SDS011;18176;49.502;11.754;2022-07-06T17:01:59;4.63;;;1.77;;
21183;SDS011;18176;49.502;11.754;2022-07-06T17:05:56;3.20;;;1.80;;
21183;SDS011;18176;49.502;11.754;2022-07-06T17:09:53;3.33;;;1.70;;
21183;SDS011;18176;49.502;11.754;2022-07-06T18:45:01;4.97;;;1.50;;
21183;SDS011;18176;49.502;11.754;2022-07-06T18:48:58;1.95;;;1.30;;
21183;SDS011;18176;49.502;11.754;2022-07-06T18:52:55;2.25;;;1.38;;
21183;SDS011;18176;49.502;11.754;2022-07-06T18:56:52;1.65;;;1.30;;
21183;SDS011;18176;49.502;11.754;2022-07-06T19:00:49;2.95;;;1.35;;
21183;SDS011;18176;49.502;11.754;2022-07-06T19:04:47;2.33;;;1.50;;
21183;SDS011;18176;49.502;11.754;2022-07-06T19:08:44;2.05;;;1.40;;
21183;SDS011;18176;49.502;11.754;2022-07-06T19:12:43;3.85;;;1.30;;
21183;SDS011;18176;49.502;11.754;2022-07-06T19:16:40;2.28;;;1.63;;
21183;SDS011;18176;49.502;11.754;2022-07-06T19:20:37;5.38;;;1.70;;
21183;SDS011;18176;49.502;11.754;2022-07-06T19:24:34;2.97;;;1.60;;
21183;SDS011;18176;49.502;11.754;2022-07-06T19:28:31;2.22;;;1.63;;
21183;SDS011;18176;49.502;11.754;2022-07-06T19:32:28;1.73;;;1.63;;
21183;SDS011;18176;49.502;11.754;2022-07-06T19:36:25;2.30;;;1.63;;
21183;SDS011;18176;49.502;11.754;2022-07-06T19:40:23;2.17;;;1.40;;
21183;SDS011;18176;49.502;11.754;2022-07-06T19:44:20;4.65;;;1.63;;
21183;SDS011;18176;49.502;11.754;2022-07-06T19:48:18;3.67;;;1.75;;
21183;SDS011;18176;49.502;11.754;2022-07-06T19:52:15;2.88;;;1.48;;
21183;SDS011;18176;49.502;11.754;2022-07-06T19:56:13;3.85;;;1.73;;
21183;SDS011;18176;49.502;11.754;2022-07-06T20:00:11;7.85;;;1.85;;
21183;SDS011;18176;49.502;11.754;2022-07-06T20:04:09;5.13;;;1.70;;
21183;SDS011;18176;49.502;11.754;2022-07-06T20:08:07;4.30;;;1.60;;
21183;SDS011;18176;49.502;11.754;2022-07-06T20:12:04;4.60;;;1.65;;
21183;SDS011;18176;49.502;11.754;2022-07-06T20:16:02;7.15;;;2.00;;
21183;SDS011;18176;49.502;11.754;2022-07-06T20:20:00;2.88;;;1.70;;
21183;SDS011;18176;49.502;11.754;2022-07-06T20:23:57;5.00;;;1.90;;
21183;SDS011;18176;49.502;11.754;2022-07-06T20:27:54;5.68;;;1.75;;
21183;SDS011;18176;49.502;11.754;2022-07-06T20:31:51;3.33;;;1.60;;
21183;SDS011;18176;49.502;11.754;2022-07-06T20:35:50;5.70;;;1.80;;
21183;SDS011;18176;49.502;11.754;2022-07-06T20:39:47;2.58;;;1.65;;
21183;SDS011;18176;49.502;11.754;2022-07-06T20:43:44;4.20;;;1.50;;
21183;SDS011;18176;49.502;11.754;2022-07-06T20:47:41;2.05;;;1.45;;
21183;SDS011;18176;49.502;11.754;2022-07-06T20:51:38;2.78;;;1.48;;
21183;SDS011;18176;49.502;11.754;2022-07-06T20:55:36;2.50;;;1.50;;
21183;SDS011;18176;49.502;11.754;2022-07-06T20:59:37;3.42;;;1.73;;
21183;SDS011;18176;49.502;11.754;2022-07-06T21:03:35;3.40;;;1.30;;
21183;SDS011;18176;49.502;11.754;2022-07-06T21:07:33;2.28;;;1.58;;
21183;SDS011;18176;49.502;11.754;2022-07-06T21:11:30;3.00;;;1.50;;
21183;SDS011;18176;49.502;11.754;2022-07-06T21:15:28;2.60;;;1.70;;
21183;SDS011;18176;49.502;11.754;2022-07-06T21:19:25;4.18;;;1.73;;
21183;SDS011;18176;49.502;11.754;2022-07-06T21:23:22;1.90;;;1.35;;
21183;SDS011;18176;49.502;11.754;2022-07-06T21:27:20;2.03;;;1.50;;
21183;SDS011;18176;49.502;11.754;2022-07-06T21:31:17;1.55;;;1.42;;
21183;SDS011;18176;49.502;11.754;2022-07-06T21:35:14;4.10;;;1.80;;
21183;SDS011;18176;49.502;11.754;2022-07-06T21:39:11;5.88;;;1.50;;
21183;SDS011;18176;49.502;11.754;2022-07-06T21:43:08;5.60;;;1.80;;
21183;SDS011;18176;49.502;11.754;2022-07-06T21:47:05;2.65;;;1.67;;
21183;SDS011;18176;49.502;11.754;2022-07-06T21:51:02;2.88;;;1.70;;
21183;SDS011;18176;49.502;11.754;2022-07-06T21:55:00;3.15;;;1.45;;
21183;SDS011;18176;49.502;11.754;2022-07-06T21:58:58;3.72;;;1.48;;
21183;SDS011;18176;49.502;11.754;2022-07-06T22:03:00;4.47;;;1.58;;
21183;SDS011;18176;49.502;11.754;2022-07-06T22:06:57;4.28;;;1.63;;
21183;SDS011;18176;49.502;11.754;2022-07-06T22:10:54;1.58;;;1.48;;
21183;SDS011;18176;49.502;11.754;2022-07-06T22:14:51;1.97;;;1.60;;
21183;SDS011;18176;49.502;11.754;2022-07-06T22:18:48;2.40;;;1.60;;
21183;SDS011;18176;49.502;11.754;2022-07-06T22:22:47;3.67;;;1.50;;
21183;SDS011;18176;49.502;11.754;2022-07-06T22:26:44;1.73;;;1.50;;
21183;SDS011;18176;49.502;11.754;2022-07-06T22:30:41;2.83;;;1.50;;
21183;SDS011;18176;49.502;11.754;2022-07-06T22:34:38;5.13;;;1.60;;
21183;SDS011;18176;49.502;11.754;2022-07-06T22:38:35;4.43;;;1.70;;
21183;SDS011;18176;49.502;11.754;2022-07-06T22:42:32;3.13;;;1.60;;
21183;SDS011;18176;49.502;11.754;2022-07-06T22:46:30;3.33;;;1.60;;
21183;SDS011;18176;49.502;11.754;2022-07-06T22:50:27;2.90;;;1.60;;
21183;SDS011;18176;49.502;11.754;2022-07-06T22:54:24;2.33;;;1.60;;
21183;SDS011;18176;49.502;11.754;2022-07-06T22:58:21;4.77;;;1.80;;
21183;SDS011;18176;49.502;11.754;2022-07-06T23:02:18;2.93;;;1.70;;
21183;SDS011;18176;49.502;11.754;2022-07-06T23:06:22;2.77;;;1.60;;
21183;SDS011;18176;49.502;11.754;2022-07-06T23:10:22;3.00;;;1.60;;
21183;SDS011;18176;49.502;11.754;2022-07-06T23:14:19;3.87;;;1.60;;
21183;SDS011;18176;49.502;11.754;2022-07-06T23:18:17;3.23;;;1.60;;
21183;SDS011;18176;49.502;11.754;2022-07-06T23:22:15;3.17;;;1.70;;
21183;SDS011;18176;49.502;11.754;2022-07-06T23:26:12;4.77;;;1.77;;
21183;SDS011;18176;49.502;11.754;2022-07-06T23:30:09;2.80;;;1.70;;
21183;SDS011;18176;49.502;11.754;2022-07-06T23:34:07;3.93;;;1.80;;
21183;SDS011;18176;49.502;11.754;2022-07-06T23:38:04;3.80;;;1.60;;
21183;SDS011;18176;49.502;11.754;2022-07-06T23:42:02;1.80;;;1.43;;
21183;SDS011;18176;49.502;11.754;2022-07-06T23:46:00;3.10;;;1.47;;
21183;SDS011;18176;49.502;11.754;2022-07-06T23:49:57;3.97;;;1.50;;
21183;SDS011;18176;49.502;11.754;2022-07-06T23:53:55;3.77;;;1.50;;
21183;SDS011;18176;49.502;11.754;2022-07-06T23:57:52;2.27;;;1.70;;
